sensor_id;sensor_type;location;lat;lon;timestamp;P1;durP1;ratioP1;P2;durP2;ratioP2
2406;SDS011;37709;53.480;9.688;2022-08-30T00:02:18;2.70;;;1.47;;
2406;SDS011;37709;53.480;9.688;2022-08-30T00:04:46;3.73;;;1.63;;
2406;SDS011;37709;53.480;9.688;2022-08-30T00:07:14;2.70;;;2.10;;
2406;SDS011;37709;53.480;9.688;2022-08-30T00:09:42;3.03;;;1.53;;
2406;SDS011;37709;53.480;9.688;2022-08-30T00:12:09;3.20;;;2.20;;
2406;SDS011;37709;53.480;9.688;2022-08-30T00:14:37;3.20;;;1.80;;
2406;SDS011;37709;53.480;9.688;2022-08-30T00:17:04;2.77;;;1.90;;
2406;SDS011;37709;53.480;9.688;2022-08-30T00:19:31;2.40;;;2.00;;
2406;SDS011;37709;53.480;9.688;2022-08-30T00:21:59;2.53;;;2.13;;
2406;SDS011;37709;53.480;9.688;2022-08-30T00:24:26;3.07;;;1.80;;
2406;SDS011;37709;53.480;9.688;2022-08-30T00:26:54;2.30;;;1.80;;
2406;SDS011;37709;53.480;9.688;2022-08-30T00:29:22;2.40;;;1.90;;
2406;SDS011;37709;53.480;9.688;2022-08-30T00:31:50;2.50;;;1.90;;
2406;SDS011;37709;53.480;9.688;2022-08-30T00:34:18;3.60;;;2.10;;
2406;SDS011;37709;53.480;9.688;2022-08-30T00:36:45;1.63;;;1.53;;
2406;SDS011;37709;53.480;9.688;2022-08-30T00:39:14;2.10;;;1.70;;
2406;SDS011;37709;53.480;9.688;2022-08-30T00:41:41;1.77;;;1.67;;
2406;SDS011;37709;53.480;9.688;2022-08-30T00:44:08;1.93;;;1.83;;
2406;SDS011;37709;53.480;9.688;2022-08-30T00:46:36;3.77;;;1.97;;
2406;SDS011;37709;53.480;9.688;2022-08-30T00:49:05;2.30;;;1.60;;
2406;SDS011;37709;53.480;9.688;2022-08-30T00:51:34;3.47;;;1.60;;
2406;SDS011;37709;53.480;9.688;2022-08-30T00:54:02;1.70;;;1.60;;
2406;SDS011;37709;53.480;9.688;2022-08-30T00:56:30;1.50;;;1.40;;
2406;SDS011;37709;53.480;9.688;2022-08-30T00:59:00;3.87;;;1.80;;
2406;SDS011;37709;53.480;9.688;2022-08-30T01:01:30;1.70;;;1.60;;
2406;SDS011;37709;53.480;9.688;2022-08-30T01:04:00;4.37;;;1.60;;
2406;SDS011;37709;53.480;9.688;2022-08-30T01:06:28;1.53;;;1.33;;
2406;SDS011;37709;53.480;9.688;2022-08-30T01:08:59;1.30;;;1.20;;
2406;SDS011;37709;53.480;9.688;2022-08-30T01:11:28;2.90;;;1.80;;
2406;SDS011;37709;53.480;9.688;2022-08-30T01:14:00;3.97;;;1.40;;
2406;SDS011;37709;53.480;9.688;2022-08-30T01:16:30;2.93;;;1.50;;
2406;SDS011;37709;53.480;9.688;2022-08-30T01:19:01;2.70;;;1.70;;
2406;SDS011;37709;53.480;9.688;2022-08-30T01:24:06;2.43;;;1.30;;
2406;SDS011;37709;53.480;9.688;2022-08-30T01:26:35;2.47;;;1.70;;
2406;SDS011;37709;53.480;9.688;2022-08-30T01:29:08;1.40;;;1.30;;
2406;SDS011;37709;53.480;9.688;2022-08-30T01:31:37;1.50;;;1.40;;
2406;SDS011;37709;53.480;9.688;2022-08-30T01:34:05;2.13;;;1.30;;
2406;SDS011;37709;53.480;9.688;2022-08-30T01:36:34;1.73;;;1.40;;
2406;SDS011;37709;53.480;9.688;2022-08-30T01:39:14;10.03;;;1.70;;
2406;SDS011;37709;53.480;9.688;2022-08-30T01:41:43;1.80;;;1.70;;
2406;SDS011;37709;53.480;9.688;2022-08-30T01:44:12;4.57;;;1.77;;
2406;SDS011;37709;53.480;9.688;2022-08-30T01:46:42;1.70;;;1.60;;
2406;SDS011;37709;53.480;9.688;2022-08-30T01:49:13;2.90;;;1.73;;
2406;SDS011;37709;53.480;9.688;2022-08-30T01:51:51;2.40;;;1.90;;
2406;SDS011;37709;53.480;9.688;2022-08-30T01:54:28;2.87;;;1.60;;
2406;SDS011;37709;53.480;9.688;2022-08-30T01:57:05;2.73;;;1.97;;
2406;SDS011;37709;53.480;9.688;2022-08-30T01:59:34;2.77;;;1.60;;
2406;SDS011;37709;53.480;9.688;2022-08-30T02:02:02;2.90;;;1.80;;
2406;SDS011;37709;53.480;9.688;2022-08-30T02:04:30;2.87;;;1.83;;
2406;SDS011;37709;53.480;9.688;2022-08-30T02:06:58;3.07;;;1.90;;
2406;SDS011;37709;53.480;9.688;2022-08-30T02:09:26;2.63;;;1.80;;
2406;SDS011;37709;53.480;9.688;2022-08-30T02:11:53;2.03;;;1.60;;
2406;SDS011;37709;53.480;9.688;2022-08-30T02:14:21;2.43;;;1.83;;
2406;SDS011;37709;53.480;9.688;2022-08-30T02:16:49;3.00;;;1.73;;
2406;SDS011;37709;53.480;9.688;2022-08-30T02:19:16;1.70;;;1.60;;
2406;SDS011;37709;53.480;9.688;2022-08-30T02:21:44;1.67;;;1.30;;
2406;SDS011;37709;53.480;9.688;2022-08-30T02:24:11;3.37;;;1.93;;
2406;SDS011;37709;53.480;9.688;2022-08-30T02:26:39;1.57;;;1.47;;
2406;SDS011;37709;53.480;9.688;2022-08-30T02:29:06;3.10;;;1.90;;
2406;SDS011;37709;53.480;9.688;2022-08-30T02:31:35;2.87;;;2.30;;
2406;SDS011;37709;53.480;9.688;2022-08-30T02:34:02;1.93;;;1.70;;
2406;SDS011;37709;53.480;9.688;2022-08-30T02:36:30;4.13;;;1.80;;
2406;SDS011;37709;53.480;9.688;2022-08-30T02:38:58;2.63;;;1.73;;
2406;SDS011;37709;53.480;9.688;2022-08-30T02:41:26;3.30;;;2.00;;
2406;SDS011;37709;53.480;9.688;2022-08-30T02:43:53;2.30;;;1.77;;
2406;SDS011;37709;53.480;9.688;2022-08-30T02:46:24;3.13;;;1.70;;
2406;SDS011;37709;53.480;9.688;2022-08-30T02:48:58;2.70;;;1.80;;
2406;SDS011;37709;53.480;9.688;2022-08-30T02:51:46;2.80;;;2.30;;
2406;SDS011;37709;53.480;9.688;2022-08-30T02:54:13;2.13;;;1.70;;
2406;SDS011;37709;53.480;9.688;2022-08-30T02:56:46;3.50;;;2.20;;
2406;SDS011;37709;53.480;9.688;2022-08-30T02:59:15;1.80;;;1.70;;
2406;SDS011;37709;53.480;9.688;2022-08-30T03:01:44;3.37;;;1.80;;
2406;SDS011;37709;53.480;9.688;2022-08-30T03:04:11;2.00;;;1.60;;
2406;SDS011;37709;53.480;9.688;2022-08-30T03:06:39;2.00;;;1.43;;
2406;SDS011;37709;53.480;9.688;2022-08-30T03:09:06;1.90;;;1.70;;
2406;SDS011;37709;53.480;9.688;2022-08-30T03:11:33;4.67;;;2.00;;
2406;SDS011;37709;53.480;9.688;2022-08-30T03:14:01;1.87;;;1.60;;
2406;SDS011;37709;53.480;9.688;2022-08-30T03:16:29;1.97;;;1.60;;
2406;SDS011;37709;53.480;9.688;2022-08-30T03:18:57;2.57;;;2.00;;
2406;SDS011;37709;53.480;9.688;2022-08-30T03:21:24;3.27;;;1.50;;
2406;SDS011;37709;53.480;9.688;2022-08-30T03:23:51;2.00;;;1.20;;
2406;SDS011;37709;53.480;9.688;2022-08-30T03:26:19;5.10;;;2.23;;
2406;SDS011;37709;53.480;9.688;2022-08-30T03:28:46;2.10;;;1.90;;
2406;SDS011;37709;53.480;9.688;2022-08-30T03:31:14;1.60;;;1.50;;
2406;SDS011;37709;53.480;9.688;2022-08-30T03:33:41;1.80;;;1.57;;
2406;SDS011;37709;53.480;9.688;2022-08-30T03:36:09;2.17;;;1.83;;
2406;SDS011;37709;53.480;9.688;2022-08-30T03:38:37;1.87;;;1.43;;
2406;SDS011;37709;53.480;9.688;2022-08-30T03:41:05;2.00;;;1.80;;
2406;SDS011;37709;53.480;9.688;2022-08-30T03:43:35;2.20;;;1.40;;
2406;SDS011;37709;53.480;9.688;2022-08-30T03:46:02;1.90;;;1.70;;
2406;SDS011;37709;53.480;9.688;2022-08-30T03:48:30;1.80;;;1.60;;
2406;SDS011;37709;53.480;9.688;2022-08-30T03:50:57;2.73;;;1.50;;
2406;SDS011;37709;53.480;9.688;2022-08-30T03:53:25;2.83;;;2.00;;
2406;SDS011;37709;53.480;9.688;2022-08-30T03:55:53;5.70;;;2.30;;
2406;SDS011;37709;53.480;9.688;2022-08-30T03:58:21;2.47;;;1.93;;
2406;SDS011;37709;53.480;9.688;2022-08-30T04:00:48;2.00;;;1.70;;
2406;SDS011;37709;53.480;9.688;2022-08-30T04:03:16;2.30;;;1.77;;
2406;SDS011;37709;53.480;9.688;2022-08-30T04:05:44;2.73;;;1.77;;
2406;SDS011;37709;53.480;9.688;2022-08-30T04:08:11;1.67;;;1.57;;
2406;SDS011;37709;53.480;9.688;2022-08-30T04:10:39;2.27;;;1.60;;
2406;SDS011;37709;53.480;9.688;2022-08-30T04:13:07;2.23;;;1.67;;
2406;SDS011;37709;53.480;9.688;2022-08-30T04:15:35;4.23;;;1.90;;
2406;SDS011;37709;53.480;9.688;2022-08-30T04:18:03;2.50;;;1.67;;
2406;SDS011;37709;53.480;9.688;2022-08-30T04:20:31;2.10;;;1.50;;
2406;SDS011;37709;53.480;9.688;2022-08-30T04:22:58;2.27;;;1.90;;
2406;SDS011;37709;53.480;9.688;2022-08-30T04:25:26;5.43;;;1.97;;
2406;SDS011;37709;53.480;9.688;2022-08-30T04:27:53;2.23;;;1.70;;
2406;SDS011;37709;53.480;9.688;2022-08-30T04:30:21;1.80;;;1.70;;
2406;SDS011;37709;53.480;9.688;2022-08-30T04:32:49;1.97;;;1.67;;
2406;SDS011;37709;53.480;9.688;2022-08-30T04:35:21;1.67;;;1.40;;
2406;SDS011;37709;53.480;9.688;2022-08-30T04:37:49;3.07;;;2.00;;
2406;SDS011;37709;53.480;9.688;2022-08-30T04:40:17;3.60;;;2.20;;
2406;SDS011;37709;53.480;9.688;2022-08-30T04:42:46;3.40;;;2.20;;
2406;SDS011;37709;53.480;9.688;2022-08-30T04:45:14;2.20;;;2.07;;
2406;SDS011;37709;53.480;9.688;2022-08-30T04:47:42;2.47;;;2.03;;
2406;SDS011;37709;53.480;9.688;2022-08-30T04:50:11;3.03;;;2.10;;
2406;SDS011;37709;53.480;9.688;2022-08-30T04:52:42;9.40;;;2.23;;
2406;SDS011;37709;53.480;9.688;2022-08-30T04:55:10;3.13;;;2.30;;
2406;SDS011;37709;53.480;9.688;2022-08-30T04:57:45;3.40;;;2.50;;
2406;SDS011;37709;53.480;9.688;2022-08-30T05:00:12;3.80;;;2.07;;
2406;SDS011;37709;53.480;9.688;2022-08-30T05:02:41;3.70;;;2.63;;
2406;SDS011;37709;53.480;9.688;2022-08-30T05:05:08;8.77;;;2.80;;
2406;SDS011;37709;53.480;9.688;2022-08-30T05:07:55;3.73;;;2.43;;
2406;SDS011;37709;53.480;9.688;2022-08-30T05:10:22;2.33;;;1.70;;
2406;SDS011;37709;53.480;9.688;2022-08-30T05:12:51;2.60;;;2.03;;
2406;SDS011;37709;53.480;9.688;2022-08-30T05:15:18;3.80;;;2.20;;
2406;SDS011;37709;53.480;9.688;2022-08-30T05:17:48;3.03;;;2.73;;
2406;SDS011;37709;53.480;9.688;2022-08-30T05:20:15;3.37;;;2.10;;
2406;SDS011;37709;53.480;9.688;2022-08-30T05:22:43;2.40;;;2.20;;
2406;SDS011;37709;53.480;9.688;2022-08-30T05:25:21;3.27;;;2.27;;
2406;SDS011;37709;53.480;9.688;2022-08-30T05:27:49;3.90;;;2.70;;
2406;SDS011;37709;53.480;9.688;2022-08-30T05:30:19;2.67;;;2.47;;
2406;SDS011;37709;53.480;9.688;2022-08-30T05:32:48;5.40;;;2.90;;
2406;SDS011;37709;53.480;9.688;2022-08-30T05:35:16;2.70;;;2.50;;
2406;SDS011;37709;53.480;9.688;2022-08-30T05:37:50;3.30;;;2.23;;
2406;SDS011;37709;53.480;9.688;2022-08-30T05:40:18;2.87;;;2.50;;
2406;SDS011;37709;53.480;9.688;2022-08-30T05:42:47;3.30;;;3.00;;
2406;SDS011;37709;53.480;9.688;2022-08-30T05:45:15;2.90;;;2.70;;
2406;SDS011;37709;53.480;9.688;2022-08-30T05:47:42;2.57;;;2.33;;
2406;SDS011;37709;53.480;9.688;2022-08-30T05:50:10;2.93;;;2.00;;
2406;SDS011;37709;53.480;9.688;2022-08-30T05:52:37;3.10;;;2.67;;
2406;SDS011;37709;53.480;9.688;2022-08-30T05:55:07;2.80;;;2.60;;
2406;SDS011;37709;53.480;9.688;2022-08-30T05:57:35;5.63;;;2.50;;
2406;SDS011;37709;53.480;9.688;2022-08-30T06:00:07;4.93;;;3.00;;
2406;SDS011;37709;53.480;9.688;2022-08-30T06:02:40;4.17;;;2.70;;
2406;SDS011;37709;53.480;9.688;2022-08-30T06:05:09;5.33;;;3.33;;
2406;SDS011;37709;53.480;9.688;2022-08-30T06:07:41;3.10;;;2.80;;
2406;SDS011;37709;53.480;9.688;2022-08-30T06:10:09;3.70;;;2.93;;
2406;SDS011;37709;53.480;9.688;2022-08-30T06:12:38;3.63;;;3.33;;
2406;SDS011;37709;53.480;9.688;2022-08-30T06:15:06;3.40;;;2.37;;
2406;SDS011;37709;53.480;9.688;2022-08-30T06:17:34;3.30;;;2.53;;
2406;SDS011;37709;53.480;9.688;2022-08-30T06:20:01;3.70;;;2.53;;
2406;SDS011;37709;53.480;9.688;2022-08-30T06:22:29;3.10;;;2.53;;
2406;SDS011;37709;53.480;9.688;2022-08-30T06:24:57;2.40;;;2.20;;
2406;SDS011;37709;53.480;9.688;2022-08-30T06:27:25;2.37;;;1.93;;
2406;SDS011;37709;53.480;9.688;2022-08-30T06:29:52;2.87;;;2.20;;
2406;SDS011;37709;53.480;9.688;2022-08-30T06:32:20;2.00;;;1.90;;
2406;SDS011;37709;53.480;9.688;2022-08-30T06:34:48;2.63;;;2.40;;
2406;SDS011;37709;53.480;9.688;2022-08-30T06:37:15;2.70;;;1.90;;
2406;SDS011;37709;53.480;9.688;2022-08-30T06:39:56;2.17;;;1.97;;
2406;SDS011;37709;53.480;9.688;2022-08-30T06:42:24;2.03;;;1.83;;
2406;SDS011;37709;53.480;9.688;2022-08-30T06:45:01;2.83;;;2.00;;
2406;SDS011;37709;53.480;9.688;2022-08-30T06:47:37;2.10;;;1.90;;
2406;SDS011;37709;53.480;9.688;2022-08-30T06:50:06;2.00;;;1.90;;
2406;SDS011;37709;53.480;9.688;2022-08-30T06:52:39;2.57;;;2.03;;
2406;SDS011;37709;53.480;9.688;2022-08-30T06:55:09;1.77;;;1.67;;
2406;SDS011;37709;53.480;9.688;2022-08-30T06:57:38;2.67;;;2.37;;
2406;SDS011;37709;53.480;9.688;2022-08-30T07:00:07;2.13;;;1.37;;
2406;SDS011;37709;53.480;9.688;2022-08-30T07:02:36;1.90;;;1.33;;
2406;SDS011;37709;53.480;9.688;2022-08-30T07:05:04;5.07;;;1.93;;
2406;SDS011;37709;53.480;9.688;2022-08-30T07:07:34;2.07;;;1.10;;
2406;SDS011;37709;53.480;9.688;2022-08-30T07:10:03;1.50;;;1.00;;
2406;SDS011;37709;53.480;9.688;2022-08-30T07:12:32;2.20;;;1.53;;
2406;SDS011;37709;53.480;9.688;2022-08-30T07:15:01;1.67;;;1.50;;
2406;SDS011;37709;53.480;9.688;2022-08-30T07:17:30;2.87;;;1.67;;
2406;SDS011;37709;53.480;9.688;2022-08-30T07:20:18;3.00;;;1.20;;
2406;SDS011;37709;53.480;9.688;2022-08-30T07:22:47;1.93;;;1.30;;
2406;SDS011;37709;53.480;9.688;2022-08-30T07:25:14;1.33;;;1.23;;
2406;SDS011;37709;53.480;9.688;2022-08-30T07:27:45;2.20;;;1.30;;
2406;SDS011;37709;53.480;9.688;2022-08-30T07:30:13;2.10;;;1.50;;
2406;SDS011;37709;53.480;9.688;2022-08-30T07:32:40;2.40;;;1.60;;
2406;SDS011;37709;53.480;9.688;2022-08-30T07:35:08;1.80;;;1.30;;
2406;SDS011;37709;53.480;9.688;2022-08-30T07:37:36;1.50;;;1.33;;
2406;SDS011;37709;53.480;9.688;2022-08-30T07:40:03;1.50;;;1.20;;
2406;SDS011;37709;53.480;9.688;2022-08-30T07:42:31;3.00;;;1.67;;
2406;SDS011;37709;53.480;9.688;2022-08-30T07:44:58;2.50;;;1.57;;
2406;SDS011;37709;53.480;9.688;2022-08-30T07:47:26;2.10;;;1.13;;
2406;SDS011;37709;53.480;9.688;2022-08-30T07:49:54;1.50;;;1.10;;
2406;SDS011;37709;53.480;9.688;2022-08-30T07:52:22;1.03;;;0.93;;
2406;SDS011;37709;53.480;9.688;2022-08-30T07:54:49;1.97;;;1.33;;
2406;SDS011;37709;53.480;9.688;2022-08-30T07:57:18;1.40;;;1.30;;
2406;SDS011;37709;53.480;9.688;2022-08-30T07:59:46;1.57;;;1.20;;
2406;SDS011;37709;53.480;9.688;2022-08-30T08:02:14;1.70;;;1.50;;
2406;SDS011;37709;53.480;9.688;2022-08-30T08:04:41;1.67;;;1.30;;
2406;SDS011;37709;53.480;9.688;2022-08-30T08:07:13;2.10;;;1.20;;
2406;SDS011;37709;53.480;9.688;2022-08-30T08:09:41;3.00;;;1.50;;
2406;SDS011;37709;53.480;9.688;2022-08-30T08:12:09;1.90;;;1.63;;
2406;SDS011;37709;53.480;9.688;2022-08-30T08:14:38;2.83;;;1.70;;
2406;SDS011;37709;53.480;9.688;2022-08-30T08:17:07;2.60;;;1.37;;
2406;SDS011;37709;53.480;9.688;2022-08-30T08:19:35;1.50;;;1.40;;
2406;SDS011;37709;53.480;9.688;2022-08-30T08:22:03;3.20;;;1.20;;
2406;SDS011;37709;53.480;9.688;2022-08-30T08:24:47;1.87;;;1.43;;
2406;SDS011;37709;53.480;9.688;2022-08-30T08:27:15;1.83;;;1.50;;
2406;SDS011;37709;53.480;9.688;2022-08-30T08:29:42;2.13;;;1.70;;
2406;SDS011;37709;53.480;9.688;2022-08-30T08:32:10;1.97;;;1.77;;
2406;SDS011;37709;53.480;9.688;2022-08-30T08:34:38;1.63;;;1.50;;
2406;SDS011;37709;53.480;9.688;2022-08-30T08:37:07;1.60;;;1.20;;
2406;SDS011;37709;53.480;9.688;2022-08-30T08:39:34;2.17;;;1.20;;
2406;SDS011;37709;53.480;9.688;2022-08-30T08:42:15;3.40;;;1.77;;
2406;SDS011;37709;53.480;9.688;2022-08-30T08:45:04;3.03;;;2.00;;
2406;SDS011;37709;53.480;9.688;2022-08-30T08:47:39;2.50;;;1.57;;
2406;SDS011;37709;53.480;9.688;2022-08-30T08:50:16;1.87;;;1.67;;
2406;SDS011;37709;53.480;9.688;2022-08-30T08:52:57;2.93;;;1.70;;
2406;SDS011;37709;53.480;9.688;2022-08-30T08:56:13;4.70;;;1.80;;
2406;SDS011;37709;53.480;9.688;2022-08-30T08:58:44;3.37;;;1.70;;
2406;SDS011;37709;53.480;9.688;2022-08-30T09:01:18;3.37;;;1.60;;
2406;SDS011;37709;53.480;9.688;2022-08-30T09:03:49;2.63;;;1.67;;
2406;SDS011;37709;53.480;9.688;2022-08-30T09:08:51;3.70;;;1.73;;
2406;SDS011;37709;53.480;9.688;2022-08-30T09:11:23;3.20;;;2.00;;
2406;SDS011;37709;53.480;9.688;2022-08-30T09:13:53;4.83;;;1.90;;
2406;SDS011;37709;53.480;9.688;2022-08-30T09:16:57;2.20;;;1.90;;
2406;SDS011;37709;53.480;9.688;2022-08-30T09:19:30;1.80;;;1.67;;
2406;SDS011;37709;53.480;9.688;2022-08-30T09:22:21;2.73;;;1.93;;
2406;SDS011;37709;53.480;9.688;2022-08-30T09:25:05;2.90;;;2.20;;
2406;SDS011;37709;53.480;9.688;2022-08-30T09:27:36;8.33;;;1.90;;
2406;SDS011;37709;53.480;9.688;2022-08-30T09:30:27;5.30;;;2.20;;
2406;SDS011;37709;53.480;9.688;2022-08-30T09:32:56;3.00;;;1.93;;
2406;SDS011;37709;53.480;9.688;2022-08-30T09:40:45;5.00;;;1.93;;
2406;SDS011;37709;53.480;9.688;2022-08-30T09:45:44;3.27;;;2.10;;
2406;SDS011;37709;53.480;9.688;2022-08-30T09:48:20;2.03;;;1.60;;
2406;SDS011;37709;53.480;9.688;2022-08-30T09:51:10;2.00;;;1.80;;
2406;SDS011;37709;53.480;9.688;2022-08-30T09:53:47;2.90;;;1.40;;
2406;SDS011;37709;53.480;9.688;2022-08-30T09:59:30;2.60;;;1.30;;
2406;SDS011;37709;53.480;9.688;2022-08-30T10:04:48;2.13;;;1.23;;
2406;SDS011;37709;53.480;9.688;2022-08-30T10:07:32;1.10;;;1.00;;
2406;SDS011;37709;53.480;9.688;2022-08-30T10:10:31;1.83;;;1.27;;
2406;SDS011;37709;53.480;9.688;2022-08-30T10:18:45;2.63;;;1.50;;
2406;SDS011;37709;53.480;9.688;2022-08-30T10:21:46;1.30;;;1.00;;
2406;SDS011;37709;53.480;9.688;2022-08-30T10:24:26;1.93;;;1.27;;
2406;SDS011;37709;53.480;9.688;2022-08-30T10:30:04;2.07;;;1.30;;
2406;SDS011;37709;53.480;9.688;2022-08-30T10:32:45;3.10;;;1.40;;
2406;SDS011;37709;53.480;9.688;2022-08-30T10:38:13;2.80;;;1.10;;
2406;SDS011;37709;53.480;9.688;2022-08-30T10:40:43;1.33;;;1.00;;
2406;SDS011;37709;53.480;9.688;2022-08-30T10:48:55;2.30;;;1.13;;
2406;SDS011;37709;53.480;9.688;2022-08-30T10:54:14;0.77;;;0.70;;
2406;SDS011;37709;53.480;9.688;2022-08-30T10:56:46;2.07;;;1.10;;
2406;SDS011;37709;53.480;9.688;2022-08-30T10:59:17;1.80;;;1.10;;
2406;SDS011;37709;53.480;9.688;2022-08-30T11:10:17;3.43;;;1.10;;
2406;SDS011;37709;53.480;9.688;2022-08-30T11:13:16;4.93;;;1.30;;
2406;SDS011;37709;53.480;9.688;2022-08-30T11:16:02;1.40;;;1.07;;
2406;SDS011;37709;53.480;9.688;2022-08-30T11:18:33;1.93;;;1.00;;
2406;SDS011;37709;53.480;9.688;2022-08-30T11:21:30;2.50;;;1.13;;
2406;SDS011;37709;53.480;9.688;2022-08-30T11:24:11;1.17;;;1.00;;
2406;SDS011;37709;53.480;9.688;2022-08-30T11:35:34;2.70;;;1.00;;
2406;SDS011;37709;53.480;9.688;2022-08-30T11:40:46;2.03;;;1.40;;
2406;SDS011;37709;53.480;9.688;2022-08-30T11:43:50;2.60;;;0.70;;
2406;SDS011;37709;53.480;9.688;2022-08-30T11:46:19;1.00;;;0.80;;
2406;SDS011;37709;53.480;9.688;2022-08-30T11:57:52;1.40;;;1.10;;
2406;SDS011;37709;53.480;9.688;2022-08-30T12:00:29;2.63;;;0.80;;
2406;SDS011;37709;53.480;9.688;2022-08-30T12:08:10;1.40;;;1.00;;
2406;SDS011;37709;53.480;9.688;2022-08-30T12:16:10;1.80;;;1.20;;
2406;SDS011;37709;53.480;9.688;2022-08-30T12:18:42;1.27;;;0.97;;
2406;SDS011;37709;53.480;9.688;2022-08-30T12:23:48;1.30;;;1.20;;
2406;SDS011;37709;53.480;9.688;2022-08-30T12:26:31;1.37;;;1.00;;
2406;SDS011;37709;53.480;9.688;2022-08-30T12:32:00;0.90;;;0.77;;
2406;SDS011;37709;53.480;9.688;2022-08-30T12:37:19;1.50;;;0.97;;
2406;SDS011;37709;53.480;9.688;2022-08-30T12:40:27;1.23;;;0.93;;
2406;SDS011;37709;53.480;9.688;2022-08-30T12:42:53;2.30;;;1.13;;
2406;SDS011;37709;53.480;9.688;2022-08-30T12:45:27;1.93;;;1.20;;
2406;SDS011;37709;53.480;9.688;2022-08-30T12:48:05;1.20;;;0.70;;
2406;SDS011;37709;53.480;9.688;2022-08-30T12:50:48;1.70;;;0.90;;
2406;SDS011;37709;53.480;9.688;2022-08-30T12:53:30;2.20;;;1.10;;
2406;SDS011;37709;53.480;9.688;2022-08-30T12:56:03;1.57;;;1.20;;
2406;SDS011;37709;53.480;9.688;2022-08-30T12:58:56;3.47;;;1.37;;
2406;SDS011;37709;53.480;9.688;2022-08-30T13:01:26;2.53;;;0.97;;
2406;SDS011;37709;53.480;9.688;2022-08-30T13:07:00;1.23;;;0.77;;
2406;SDS011;37709;53.480;9.688;2022-08-30T13:09:38;1.57;;;1.03;;
2406;SDS011;37709;53.480;9.688;2022-08-30T13:12:47;1.90;;;0.90;;
2406;SDS011;37709;53.480;9.688;2022-08-30T13:15:17;1.43;;;1.17;;
2406;SDS011;37709;53.480;9.688;2022-08-30T13:18:11;1.40;;;0.90;;
2406;SDS011;37709;53.480;9.688;2022-08-30T13:23:54;2.50;;;0.90;;
2406;SDS011;37709;53.480;9.688;2022-08-30T13:26:26;2.10;;;1.10;;
2406;SDS011;37709;53.480;9.688;2022-08-30T13:28:56;2.23;;;1.00;;
2406;SDS011;37709;53.480;9.688;2022-08-30T13:31:26;4.07;;;1.07;;
2406;SDS011;37709;53.480;9.688;2022-08-30T13:33:56;1.73;;;0.90;;
2406;SDS011;37709;53.480;9.688;2022-08-30T13:36:27;1.27;;;1.07;;
2406;SDS011;37709;53.480;9.688;2022-08-30T13:38:56;1.00;;;0.90;;
2406;SDS011;37709;53.480;9.688;2022-08-30T13:41:25;1.73;;;1.10;;
2406;SDS011;37709;53.480;9.688;2022-08-30T13:44:00;1.43;;;0.83;;
2406;SDS011;37709;53.480;9.688;2022-08-30T13:46:40;1.67;;;0.90;;
2406;SDS011;37709;53.480;9.688;2022-08-30T13:49:23;1.87;;;1.00;;
2406;SDS011;37709;53.480;9.688;2022-08-30T13:52:14;1.77;;;0.93;;
2406;SDS011;37709;53.480;9.688;2022-08-30T13:54:49;1.10;;;0.70;;
2406;SDS011;37709;53.480;9.688;2022-08-30T13:57:18;2.77;;;1.07;;
2406;SDS011;37709;53.480;9.688;2022-08-30T14:00:11;1.60;;;0.93;;
2406;SDS011;37709;53.480;9.688;2022-08-30T14:02:44;1.80;;;0.80;;
2406;SDS011;37709;53.480;9.688;2022-08-30T14:05:23;1.53;;;0.77;;
2406;SDS011;37709;53.480;9.688;2022-08-30T14:08:14;2.50;;;0.77;;
2406;SDS011;37709;53.480;9.688;2022-08-30T14:14:01;2.33;;;1.10;;
2406;SDS011;37709;53.480;9.688;2022-08-30T14:16:51;1.40;;;0.87;;
2406;SDS011;37709;53.480;9.688;2022-08-30T14:19:19;1.90;;;0.80;;
2406;SDS011;37709;53.480;9.688;2022-08-30T14:21:47;1.93;;;1.00;;
2406;SDS011;37709;53.480;9.688;2022-08-30T14:24:15;1.60;;;0.93;;
2406;SDS011;37709;53.480;9.688;2022-08-30T14:26:48;1.43;;;1.00;;
2406;SDS011;37709;53.480;9.688;2022-08-30T14:29:21;3.20;;;1.10;;
2406;SDS011;37709;53.480;9.688;2022-08-30T14:31:52;1.60;;;1.00;;
2406;SDS011;37709;53.480;9.688;2022-08-30T14:34:19;2.30;;;1.00;;
2406;SDS011;37709;53.480;9.688;2022-08-30T14:36:48;2.40;;;1.17;;
2406;SDS011;37709;53.480;9.688;2022-08-30T14:39:17;1.50;;;0.80;;
2406;SDS011;37709;53.480;9.688;2022-08-30T14:41:48;1.27;;;0.80;;
2406;SDS011;37709;53.480;9.688;2022-08-30T14:44:18;1.10;;;1.00;;
2406;SDS011;37709;53.480;9.688;2022-08-30T14:46:46;0.80;;;0.70;;
2406;SDS011;37709;53.480;9.688;2022-08-30T14:49:14;2.33;;;1.10;;
2406;SDS011;37709;53.480;9.688;2022-08-30T14:51:42;1.27;;;1.00;;
2406;SDS011;37709;53.480;9.688;2022-08-30T14:54:15;1.90;;;0.90;;
2406;SDS011;37709;53.480;9.688;2022-08-30T14:56:44;2.00;;;1.13;;
2406;SDS011;37709;53.480;9.688;2022-08-30T14:59:13;1.47;;;1.07;;
2406;SDS011;37709;53.480;9.688;2022-08-30T15:01:42;0.87;;;0.77;;
2406;SDS011;37709;53.480;9.688;2022-08-30T15:04:11;1.30;;;0.90;;
2406;SDS011;37709;53.480;9.688;2022-08-30T15:06:41;1.30;;;1.00;;
2406;SDS011;37709;53.480;9.688;2022-08-30T15:09:11;2.30;;;1.10;;
2406;SDS011;37709;53.480;9.688;2022-08-30T15:11:42;3.10;;;0.90;;
2406;SDS011;37709;53.480;9.688;2022-08-30T15:14:13;1.77;;;0.80;;
2406;SDS011;37709;53.480;9.688;2022-08-30T15:16:42;2.30;;;1.30;;
2406;SDS011;37709;53.480;9.688;2022-08-30T15:19:10;2.73;;;1.00;;
2406;SDS011;37709;53.480;9.688;2022-08-30T15:21:42;3.67;;;1.00;;
2406;SDS011;37709;53.480;9.688;2022-08-30T15:24:12;1.23;;;0.73;;
2406;SDS011;37709;53.480;9.688;2022-08-30T15:26:43;1.10;;;0.90;;
2406;SDS011;37709;53.480;9.688;2022-08-30T15:29:14;1.90;;;1.00;;
2406;SDS011;37709;53.480;9.688;2022-08-30T15:31:44;2.10;;;1.10;;
2406;SDS011;37709;53.480;9.688;2022-08-30T15:34:17;2.60;;;1.10;;
2406;SDS011;37709;53.480;9.688;2022-08-30T15:36:46;1.40;;;0.93;;
2406;SDS011;37709;53.480;9.688;2022-08-30T15:39:16;1.57;;;1.00;;
2406;SDS011;37709;53.480;9.688;2022-08-30T15:41:44;1.40;;;0.90;;
2406;SDS011;37709;53.480;9.688;2022-08-30T15:44:21;3.17;;;0.73;;
2406;SDS011;37709;53.480;9.688;2022-08-30T15:46:49;1.97;;;1.00;;
2406;SDS011;37709;53.480;9.688;2022-08-30T15:49:17;1.10;;;1.00;;
2406;SDS011;37709;53.480;9.688;2022-08-30T15:51:47;1.43;;;0.63;;
2406;SDS011;37709;53.480;9.688;2022-08-30T15:54:20;1.33;;;0.80;;
2406;SDS011;37709;53.480;9.688;2022-08-30T15:56:48;1.47;;;1.00;;
2406;SDS011;37709;53.480;9.688;2022-08-30T15:59:25;4.50;;;1.07;;
2406;SDS011;37709;53.480;9.688;2022-08-30T16:01:53;2.97;;;1.07;;
2406;SDS011;37709;53.480;9.688;2022-08-30T16:04:23;1.47;;;0.87;;
2406;SDS011;37709;53.480;9.688;2022-08-30T16:06:51;2.97;;;0.93;;
2406;SDS011;37709;53.480;9.688;2022-08-30T16:09:20;1.87;;;1.33;;
2406;SDS011;37709;53.480;9.688;2022-08-30T16:11:48;1.30;;;1.20;;
2406;SDS011;37709;53.480;9.688;2022-08-30T16:14:16;1.50;;;0.77;;
2406;SDS011;37709;53.480;9.688;2022-08-30T16:16:44;1.87;;;0.80;;
2406;SDS011;37709;53.480;9.688;2022-08-30T16:19:14;1.30;;;0.90;;
2406;SDS011;37709;53.480;9.688;2022-08-30T16:21:42;0.80;;;0.77;;
2406;SDS011;37709;53.480;9.688;2022-08-30T16:24:11;0.93;;;0.83;;
2406;SDS011;37709;53.480;9.688;2022-08-30T16:26:41;2.40;;;0.87;;
2406;SDS011;37709;53.480;9.688;2022-08-30T16:29:09;0.90;;;0.80;;
2406;SDS011;37709;53.480;9.688;2022-08-30T16:31:38;1.70;;;1.10;;
2406;SDS011;37709;53.480;9.688;2022-08-30T16:34:14;0.77;;;0.70;;
2406;SDS011;37709;53.480;9.688;2022-08-30T16:36:43;3.50;;;2.80;;
2406;SDS011;37709;53.480;9.688;2022-08-30T16:39:12;1.30;;;1.00;;
2406;SDS011;37709;53.480;9.688;2022-08-30T16:41:41;1.20;;;1.00;;
2406;SDS011;37709;53.480;9.688;2022-08-30T16:44:11;1.00;;;0.90;;
2406;SDS011;37709;53.480;9.688;2022-08-30T16:46:41;2.60;;;1.00;;
2406;SDS011;37709;53.480;9.688;2022-08-30T16:49:18;1.10;;;0.80;;
2406;SDS011;37709;53.480;9.688;2022-08-30T16:51:48;1.40;;;1.00;;
2406;SDS011;37709;53.480;9.688;2022-08-30T16:54:17;1.30;;;0.80;;
2406;SDS011;37709;53.480;9.688;2022-08-30T16:56:45;2.10;;;1.10;;
2406;SDS011;37709;53.480;9.688;2022-08-30T16:59:13;1.73;;;0.70;;
2406;SDS011;37709;53.480;9.688;2022-08-30T17:01:42;0.80;;;0.80;;
2406;SDS011;37709;53.480;9.688;2022-08-30T17:04:12;2.23;;;0.77;;